ADDS METAR Data INFO
IDs: Format: Raw Decoded Include TAF

Data at: 0026 UTC 11 Dec 2017

KGRN 110015Z AUTO 30010G14KT 10SM CLR 08/M09 A3016 RMK AO2 T00821093
KGRN 102355Z AUTO 29008KT 10SM CLR 08/M09 A3016 RMK AO2 T00811092 10134 20081
KGRN 102335Z AUTO 30010KT 10SM CLR 10/M10 A3017 RMK AO2 T00991101
KGRN 102315Z AUTO 29016G19KT 10SM CLR 10/M10 A3016 RMK AO2 T01041100
KGRN 102255Z AUTO 30013KT 10SM CLR 11/M10 A3016 RMK AO2 T01071098
KGRN 102235Z AUTO 30012G18KT 10SM CLR 12/M10 A3017 RMK AO2 T01161100
KGRN 102215Z AUTO 29012KT 10SM CLR 12/M10 A3017 RMK AO2 T01201096
KGRN 102155Z AUTO 29011G20KT 10SM CLR 13/M10 A3018 RMK AO2 T01251098
KGRN 102135Z AUTO 28013G16KT 10SM CLR 13/M10 A3018 RMK AO2 T01301097
KGRN 102115Z AUTO 28014G19KT 10SM CLR 13/M09 A3018 RMK AO2 T01331091
KGRN 102055Z AUTO 29014G17KT 10SM CLR 13/M09 A3019 RMK AO2 T01321092
KGRN 102035Z AUTO 29014G18KT 10SM CLR 13/M09 A3019 RMK AO2 T01311087
KGRN 102015Z AUTO 29013G18KT 10SM CLR 13/M09 A3020 RMK AO2 T01261087
KGRN 101955Z AUTO 29015G20KT 10SM CLR 12/M08 A3020 RMK AO2 T01221085
KGRN 101935Z AUTO 28013G16KT 10SM CLR 12/M08 A3022 RMK AO2 T01181081
KGRN 101915Z AUTO 30014G17KT 10SM CLR 11/M09 A3023 RMK AO2 T01121087
KGRN 101855Z AUTO 28013G19KT 10SM CLR 11/M09 A3023 RMK AO2 T01051087
KGRN 101835Z AUTO 28015G22KT 10SM CLR 10/M09 A3024 RMK AO2 T01021087
KGRN 101815Z AUTO 28017G21KT 10SM CLR 10/M09 A3025 RMK AO2 T00991090
KGRN 101755Z AUTO 28016KT 10SM CLR 10/M09 A3025 RMK AO2 T00951086 10095 20024
KGRN 101735Z AUTO 28013G20KT 10SM CLR 09/M08 A3025 RMK AO2 T00901085
KGRN 101715Z AUTO 28016KT 10SM CLR 09/M09 A3025 RMK AO2 T00851089
KGRN 101655Z AUTO 28015G21KT 10SM CLR 08/M09 A3025 RMK AO2 T00821091
KGRN 101635Z AUTO 28016KT 10SM CLR 08/M09 A3026 RMK AO2 T00751090
KGRN 101615Z AUTO 28016KT 10SM CLR 07/M09 A3025 RMK AO2 T00721089
KGRN 101555Z AUTO 28015G18KT 10SM CLR 06/M09 A3025 RMK AO2 T00611092
KGRN 101535Z AUTO 28016G21KT 10SM CLR 05/M09 A3025 RMK AO2 T00521094
KGRN 101515Z AUTO 28013G20KT 10SM CLR 05/M10 A3026 RMK AO2 T00461096
KGRN 101455Z AUTO 28013KT 10SM CLR 03/M10 A3025 RMK AO2 T00321096
KGRN 101435Z AUTO 28013KT 10SM CLR 03/M10 A3025 RMK AO2 T00291097
KGRN 101415Z AUTO 28013KT 10SM CLR 02/M10 A3024 RMK AO2 T00241096
KGRN 101355Z AUTO 28014KT 10SM CLR 03/M09 A3024 RMK AO2 T00251095
KGRN 101335Z AUTO 28014G18KT 10SM CLR 03/M10 A3024 RMK AO2 T00301096
KGRN 101315Z AUTO 27012KT 10SM CLR 03/M10 A3024 RMK AO2 T00301098
KGRN 101255Z AUTO 28015KT 10SM CLR 03/M09 A3024 RMK AO2 T00291095
KGRN 101235Z AUTO 28015KT 10SM CLR 03/M09 A3024 RMK AO2 T00311095
KGRN 101215Z AUTO 28015KT 10SM CLR 04/M09 A3024 RMK AO2 T00351095
KGRN 101155Z AUTO 28016KT 10SM CLR 04/M10 A3023 RMK AO2 T00371096 10038 20025
KGRN 101135Z AUTO 28015G21KT 10SM CLR 04/M09 A3022 RMK AO2 T00361095
KGRN 101115Z AUTO 28017G22KT 10SM CLR 04/M09 A3022 RMK AO2 T00361095
KGRN 101055Z AUTO 28018G22KT 10SM CLR 04/M09 A3022 RMK AO2 T00351094
KGRN 101035Z AUTO 28017G22KT 10SM CLR 03/M09 A3023 RMK AO2 T00331095
KGRN 101015Z AUTO 28017G22KT 10SM CLR 03/M09 A3023 RMK AO2 T00321094
KGRN 100955Z AUTO 28016G22KT 10SM CLR 03/M09 A3023 RMK AO2 T00341095
KGRN 100935Z AUTO 28016G22KT 10SM CLR 03/M09 A3023 RMK AO2 T00311093
KGRN 100915Z AUTO 28014G19KT 10SM CLR 03/M09 A3023 RMK AO2 T00261088
KGRN 100855Z AUTO 28015KT 10SM CLR 03/M09 A3023 RMK AO2 T00261089
KGRN 100835Z AUTO 28015KT 10SM CLR 03/M09 A3022 RMK AO2 T00291087
KGRN 100815Z AUTO 28016KT 10SM CLR 03/M09 A3022 RMK AO2 T00301087
KGRN 100755Z AUTO 27016G19KT 10SM CLR 03/M09 A3022 RMK AO2 T00311087
KGRN 100735Z AUTO 27014G20KT 10SM CLR 03/M08 A3023 RMK AO2 T00301085
KGRN 100715Z AUTO 27014KT 10SM CLR 03/M08 A3022 RMK AO2 T00291084
KGRN 100655Z AUTO 27013KT 10SM CLR 03/M08 A3022 RMK AO2 T00271080
KGRN 100635Z AUTO 27015G19KT 10SM CLR 03/M08 A3022 RMK AO2 T00281077
KGRN 100615Z AUTO 28015G21KT 10SM CLR 03/M07 A3021 RMK AO2 T00281075
KGRN 100555Z AUTO 28016G21KT 10SM CLR 03/M07 A3021 RMK AO2 T00321073 10063 20028 400951050
KGRN 100535Z AUTO 27014G20KT 10SM CLR 04/M07 A3021 RMK AO2 T00371073
KGRN 100515Z AUTO 27014G19KT 10SM CLR 04/M07 A3021 RMK AO2 T00361070
KGRN 100455Z AUTO 27014G19KT 10SM CLR 04/M07 A3020 RMK AO2 T00431070
KGRN 100435Z AUTO 27013KT 10SM CLR 05/M07 A3020 RMK AO2 T00451071
KGRN 100415Z AUTO 28013KT 10SM CLR 05/M07 A3020 RMK AO2 T00461073
KGRN 100355Z AUTO 27014G18KT 10SM CLR 05/M08 A3020 RMK AO2 T00501076
KGRN 100335Z AUTO 27014KT 10SM CLR 05/M07 A3019 RMK AO2 T00501073
KGRN 100315Z AUTO 28013KT 10SM CLR 05/M07 A3019 RMK AO2 T00451066
KGRN 100255Z AUTO 28013KT 10SM CLR 04/M07 A3019 RMK AO2 T00441070
KGRN 100235Z AUTO 31007KT 10SM CLR 03/M06 A3019 RMK AO2 T00311065
KGRN 100215Z AUTO 28011KT 10SM CLR 05/M06 A3018 RMK AO2 T00451065
KGRN 100155Z AUTO 29012KT 10SM CLR 06/M07 A3018 RMK AO2 T00551066
KGRN 100135Z AUTO 29013KT 10SM CLR 06/M07 A3018 RMK AO2 T00621071
KGRN 100115Z AUTO 29013KT 10SM CLR 06/M07 A3017 RMK AO2 T00561069
KGRN 100055Z AUTO 28011KT 10SM CLR 05/M07 A3017 RMK AO2 T00511069
KGRN 100035Z AUTO 28007KT 10SM CLR 03/M06 A3017 RMK AO2 T00321060
KGRN 100015Z AUTO 28008KT 10SM CLR 05/M06 A3016 RMK AO2 T00461061
KGRN 092355Z AUTO 27008KT 10SM CLR 06/M07 A3015 RMK AO2 T00581066 10095 20058
KGRN 092335Z AUTO 27009KT 10SM CLR 06/M06 A3015 RMK AO2 T00621062
KGRN 092315Z AUTO 27011KT 10SM CLR 07/M06 A3015 RMK AO2 T00681060
KGRN 092255Z AUTO 28010KT 10SM CLR 08/M06 A3015 RMK AO2 T00761060
KGRN 092235Z AUTO 28010KT 10SM CLR 09/M06 A3014 RMK AO2 T00861060
KGRN 092215Z AUTO 28011KT 10SM CLR 09/M06 A3015 RMK AO2 T00911057
KGRN 092155Z AUTO 28013KT 10SM CLR 10/M06 A3015 RMK AO2 T00951056
KGRN 092135Z AUTO 27012G18KT 10SM CLR 09/M06 A3015 RMK AO2 T00931057
KGRN 092115Z AUTO 27014G19KT 10SM CLR 09/M06 A3015 RMK AO2 T00931059
KGRN 092055Z AUTO 27014G17KT 10SM CLR 09/M06 A3015 RMK AO2 T00911061
KGRN 092035Z AUTO 27012G16KT 10SM CLR 09/M06 A3015 RMK AO2 T00901058
KGRN 092015Z AUTO 27011G17KT 10SM CLR 09/M06 A3016 RMK AO2 T00851060
KGRN 091955Z AUTO 27012KT 10SM CLR 08/M06 A3017 RMK AO2 T00791060
KGRN 091935Z AUTO 28014KT 10SM CLR 07/M06 A3017 RMK AO2 T00711060
KGRN 091915Z AUTO 28014G18KT 10SM CLR 08/M06 A3018 RMK AO2 T00751060
KGRN 091855Z AUTO 27014KT 10SM CLR 07/M06 A3019 RMK AO2 T00721057
KGRN 091835Z AUTO 27014G19KT 10SM CLR 07/M06 A3020 RMK AO2 T00681062
KGRN 091815Z AUTO 27011KT 10SM CLR 07/M06 A3020 RMK AO2 T00651061
KGRN 091755Z AUTO 27010KT 10SM CLR 06/M06 A3021 RMK AO2 T00581061 10058 21050
KGRN 091735Z AUTO 28013KT 10SM CLR 05/M06 A3021 RMK AO2 T00511065
KGRN 091715Z AUTO 28010KT 10SM CLR 04/M07 A3022 RMK AO2 T00431068
KGRN 091655Z AUTO 29012KT 10SM CLR 04/M07 A3022 RMK AO2 T00371069
KGRN 091635Z AUTO 29011G15KT 10SM CLR 03/M07 A3022 RMK AO2 T00281070
KGRN 091615Z AUTO 28007KT 10SM CLR 01/M07 A3022 RMK AO2 T00131072
KGRN 091555Z AUTO 29008KT 10SM CLR 00/M07 A3022 RMK AO2 T00011073
KGRN 091535Z AUTO 29007KT 10SM CLR M01/M08 A3021 RMK AO2 T10071076
KGRN 091515Z AUTO 29007KT 10SM CLR M01/M08 A3021 RMK AO2 T10151080
KGRN 091455Z AUTO 28011KT 10SM CLR M02/M08 A3020 RMK AO2 T10171084
KGRN 091435Z AUTO 28011KT 10SM CLR M02/M08 A3020 RMK AO2 T10241085
KGRN 091415Z AUTO 28009KT 10SM CLR M03/M08 A3020 RMK AO2 T10281085
KGRN 091355Z AUTO 28009KT 10SM CLR M03/M08 A3019 RMK AO2 T10331085
KGRN 091335Z AUTO 27009KT 10SM CLR M05/M09 A3019 RMK AO2 T10481089
KGRN 091315Z AUTO 28007KT 10SM CLR M05/M09 A3019 RMK AO2 T10461090
KGRN 091255Z AUTO 29007KT 10SM CLR M04/M09 A3018 RMK AO2 T10431087
KGRN 091235Z AUTO 28007KT 10SM CLR M05/M09 A3018 RMK AO2 T10481090